Allagash, Maine
Current Conditions -  °F | °C
As of 10:53 PM on Tuesday 25 Nov 2014 (Local Time) from KFVE Reporting Station
Few Clouds Few Clouds  
Wind Chill: 27°   Ceiling: Unl
Heat Index: 37°   Visibility: 10mi
Dew Point: 25°   Wind: 18mph
Humidity: 62%   Direction: 260°W
Pressure: 29.8"   Gusts: 37mph
Location:  47.1951°N, 69.2728°W
Report Text: KFVE 260353Z AUTO 26016G32KT 10SM FEW037 03/M04 A2980 RMK AO2 PK WND 25033/0311 SLP096 T00281039
Loading
Personal Weather Stations






























Interactive Weather Map New forecast layout! Learn more

10-Day Weather Forecast

Advertisements
Track Severe Weather on mobile